New Chitose Airport
RJCC : now visible

Airfield :











YOU CAN JOIN US ON...

 
LOGIN :

Register | Disclaimer

   EN    FR    IT 

 









Legend :    VFR   Marginal VFR   IFR   Intensive IFR   Very Intensive IFR
Visi :
Ceiling :
>= 8 km
>= 3000ft
5 to 8 km
1000 to 3000 ft
1500m to 5 km
500 to 1000 ft
800 to 1500m
200 to 500 ft
< 800m
< 200 ft
Symbols :   Thunderstorms  Fog  Heavy snow  Heavy precipitations  Wind > 20 kt







- Airport Elevation : 82 ft
- IATA code : CTS


RJCC - New Chitose

CURRENT METAR :
  • 210200Z VRB02KT 9999 -SHSN FEW010 BKN015 01/M04 Q1016 RMK 1ST010 7ST015 A3001

EXPIRED METARs :
  • 210130Z VRB02KT 8000 -SHSN FEW010 SCT015 BKN020 01/M04 Q1016 RMK 1ST010 3ST015 7CU020 A3001
  • 210100Z 00000KT 7000 -SHSN FEW010 BKN020 01/M03 Q1016 RMK 1ST010 7CU020 A3001
  • 210030Z VRB02KT 6000 -SHSN FEW010 BKN025 00/M03 Q1016 RMK 1ST010 7CU025 A3001
  • 210000Z VRB02KT 6000 -SHSN FEW010 BKN025 00/M02 Q1016 RMK 1ST010 7CU025 A3001
  • 202330Z VRB01KT 4500 -SHSN BR FEW003 SCT010 BKN025 00/M02 Q1016 RMK 1ST003 3ST010 7CU025 A3001
  • 202317Z VRB02KT 3200 -SHSN BR FEW003 BKN025 00/M01 Q1016 RMK 1ST003 7CU025 A3001

TAF AMD TAF RJCC
Valid from the 21 at 00:00 until the 22 at 06:00 UTC


210043Z 2100/2206 35009KT 9999 FEW015 BKN025
BECMG 2110/2112 17007KT
RJJJ FIR / Asia



MET'MAP, your aeronautical weather chart ! - Copyright ORBIFLY December 2007 - Disclaimer

ORBIFLY MET'MAP TEAM :

Programming & Development : Alexandra Zaïnal
Concept & Development : Baudouin d'Aumeries
Co-Development & Prog : Marc-Olivier Méhu
Technical & hardware support : Manuel Goepfert

Contact : metmap@orbifly.com




SOURCES & CREDITS :

   NOAA       Earth
Advisory